Tropical Cyclones
[Index]
Main Index Home Page Stock Weather Photos Extreme Storms Discussion Storm News and Storm Chasing Reports Tropical Cyclones / Hurricanes / Typhoons Weather Data and Links Wild Fires / Bushfires Weather Observation Techniques Weather Picture Catalogue Tornado Pictures and Reports Stock Video Footage and DVDs for sale
Season 2013-2014 Tropical Cyclone KOFI Track Map
Season 2013-2014 Summaries: [BoM-AU] [JTWC-AU] [JTWC-SIO] [JTWC-SPAC] [JTWC-SH]
<<- Previous TC | JTWC 2013-2014 Season | Next TC ->>

click for intensity scale information  Lat/long Grid: Show Hide

 Date Labels: Show Hide

Joint Typhoon Warning Centre Cyclone Data

Name: KOFI

26 Feb 2014 06:00 UTC to 04 Mar 2014 06:00 UTC

    date/time    lat    long     hPa   cat  kts
2014-02-26 06   18.7   179.1    1007         20          
2014-02-26 12   18.3   179.0    1007         20          
2014-02-26 18   18.0   178.7    1004         25          
2014-02-27 00   17.4   178.3    1007         20          
2014-02-27 06   16.7   178.4    1007         20          
2014-02-27 12   16.2   178.6    1004         25          
2014-02-27 18   15.9   179.0    1004         25          
2014-02-28 00   15.5   179.6     998         30          
2014-02-28 06   15.9   179.5W   1000         30          
2014-02-28 12   17.3   178.9W    996         35          
2014-02-28 18   18.6   178.2W    996         35          
2014-03-01 00   19.8   177.2W    993    1    40          
2014-03-01 06   20.7   176.6W    989    1    45          
2014-03-01 12   21.6   176.1W    989    1    45          
2014-03-01 18   22.3   175.4W    989    1    45          
2014-03-02 00   23.0   174.8W    989    1    45          
2014-03-02 06   23.8   174.1W    985    1    50          
2014-03-02 06   23.8   174.1W    985    1    50          
2014-03-02 12   24.6   173.4W    985    1    50          
2014-03-02 18   25.4   172.5W    985    1    50          
2014-03-03 00   26.6   171.1W    985    1    50          
2014-03-03 06   27.6   169.1W    985    1    50          
2014-03-03 12   29.2   167.1W    989    1    45          
2014-03-03 18   30.7   165.1W    993    1    40          
2014-03-04 00   32.5   162.6W   1000         30          
2014-03-04 06   33.5   158.5W    996         35          
Winds are 1-min average.

Tropical cyclone tracks developed by Michael Bath using data from the Joint Typhoon Warning Centre Best Tracks and Google Maps.


[Australian Severe Weather index] [Copyright Notice] [Email Contacts] [Search This Site] [Privacy Policy]
Document: tropical_cyclone_kofi.htm Updated: 28 June 2017